createdAt,value
2023-12-29T00:03:47.545Z,22.58
2023-12-29T00:08:51.839Z,23.04
2023-12-29T00:13:55.441Z,23.73
2023-12-29T00:18:58.302Z,23.88
2023-12-29T00:24:01.878Z,23.63
2023-12-29T00:29:07.410Z,23.60
2023-12-29T00:34:11.022Z,23.62
2023-12-29T00:39:14.310Z,23.25
2023-12-29T00:44:17.092Z,23.93
2023-12-29T00:49:20.560Z,23.60
2023-12-29T00:54:24.493Z,23.64
2023-12-29T00:59:28.513Z,23.58
2023-12-29T01:04:31.386Z,24.73
2023-12-29T01:09:39.851Z,23.65
2023-12-29T01:14:42.703Z,22.32
2023-12-29T01:19:46.463Z,23.05
2023-12-29T01:24:49.691Z,22.84
2023-12-29T01:29:54.082Z,23.11
2023-12-29T01:34:56.980Z,22.46
2023-12-29T01:40:01.542Z,22.29
2023-12-29T01:45:05.041Z,22.43
2023-12-29T01:50:08.592Z,21.88
2023-12-29T01:55:14.391Z,22.51
2023-12-29T02:00:18.781Z,23.06
2023-12-29T02:05:26.319Z,22.76
2023-12-29T02:10:29.968Z,23.82
2023-12-29T02:15:32.911Z,23.19
2023-12-29T02:20:36.185Z,23.07
2023-12-29T02:25:39.821Z,22.57
2023-12-29T02:31:08.002Z,22.30
2023-12-29T02:36:13.984Z,23.56
2023-12-29T02:41:17.178Z,21.98
2023-12-29T02:46:20.346Z,21.40
2023-12-29T02:51:23.286Z,22.64
2023-12-29T02:56:25.984Z,21.95
2023-12-29T03:01:30.510Z,21.84
2023-12-29T03:06:33.514Z,21.91
2023-12-29T03:11:37.294Z,22.93
2023-12-29T03:16:40.113Z,21.65
2023-12-29T03:21:43.340Z,21.78
2023-12-29T03:26:46.509Z,22.19
2023-12-29T03:31:50.292Z,21.59
2023-12-29T03:36:53.321Z,23.07
2023-12-29T03:41:56.562Z,23.29
2023-12-29T03:47:00.558Z,22.36
2023-12-29T03:52:03.905Z,22.02
2023-12-29T03:57:06.795Z,21.40
2023-12-29T04:02:11.137Z,21.25
2023-12-29T04:07:14.523Z,22.84
2023-12-29T04:12:18.773Z,23.22
2023-12-29T04:17:21.578Z,22.38
2023-12-29T04:22:24.833Z,22.09
2023-12-29T04:27:27.734Z,22.07
2023-12-29T04:32:31.676Z,23.01
2023-12-29T04:37:34.499Z,22.18
2023-12-29T04:42:38.148Z,21.30
2023-12-29T04:47:40.944Z,21.76
2023-12-29T04:52:44.051Z,21.30
2023-12-29T04:57:46.946Z,21.68
2023-12-29T05:02:50.268Z,21.92
2023-12-29T05:07:53.011Z,20.85
2023-12-29T05:12:56.071Z,22.17
2023-12-29T05:17:59.278Z,21.01
2023-12-29T05:23:02.590Z,24.12
2023-12-29T05:28:05.752Z,23.30
2023-12-29T05:33:10.358Z,22.93
2023-12-29T05:38:13.171Z,22.58
2023-12-29T05:43:20.413Z,23.78
2023-12-29T05:48:23.323Z,22.89
2023-12-29T05:53:26.618Z,22.83
2023-12-29T05:58:29.545Z,22.99
2023-12-29T06:03:32.802Z,22.86
2023-12-29T06:08:35.757Z,22.82
2023-12-29T06:13:39.811Z,23.29
2023-12-29T06:18:43.077Z,23.06
2023-12-29T06:23:47.949Z,22.75
2023-12-29T06:28:50.831Z,21.46
2023-12-29T06:33:55.481Z,22.53
2023-12-29T06:39:01.984Z,23.33
2023-12-29T06:44:05.397Z,23.36
2023-12-29T06:49:10.615Z,22.64
2023-12-29T06:54:14.493Z,23.75
2023-12-29T06:59:17.866Z,24.99
2023-12-29T07:04:22.086Z,24.56
2023-12-29T07:09:25.049Z,23.11
2023-12-29T07:14:28.509Z,23.43
2023-12-29T07:19:39.173Z,23.32
2023-12-29T07:24:42.408Z,22.71
2023-12-29T07:29:45.387Z,23.10
2023-12-29T07:34:51.008Z,23.04
2023-12-29T07:39:54.203Z,21.73
2023-12-29T07:44:58.007Z,21.20
2023-12-29T07:50:00.944Z,21.76
2023-12-29T07:55:04.463Z,22.06
2023-12-29T08:00:08.146Z,21.04
2023-12-29T08:05:20.628Z,21.16
2023-12-29T08:10:23.601Z,20.86
2023-12-29T08:15:26.894Z,20.35
2023-12-29T08:20:30.208Z,21.29
2023-12-29T08:26:38.233Z,20.68
2023-12-29T08:31:41.115Z,22.12
2023-12-29T08:36:44.427Z,22.42
2023-12-29T08:41:48.873Z,22.33
2023-12-29T08:46:52.394Z,20.55
2023-12-29T08:51:55.227Z,22.04
2023-12-29T08:56:58.259Z,21.75
2023-12-29T09:02:01.866Z,22.20
2023-12-29T09:07:07.575Z,22.76
2023-12-29T09:12:10.682Z,22.21
2023-12-29T09:17:13.979Z,21.79
2023-12-29T09:22:16.961Z,22.25
2023-12-29T09:27:20.405Z,22.04
2023-12-29T09:32:23.291Z,21.70
2023-12-29T09:37:26.553Z,22.18
2023-12-29T09:42:30.899Z,22.39
2023-12-29T09:47:37.450Z,22.67
2023-12-29T09:52:44.583Z,22.65
2023-12-29T09:57:50.579Z,23.44
2023-12-29T10:02:54.846Z,21.97
2023-12-29T10:08:04.055Z,22.09
2023-12-29T10:13:10.171Z,22.20
2023-12-29T10:18:29.187Z,22.20
2023-12-29T10:24:06.402Z,22.75
2023-12-29T10:29:10.363Z,23.67
2023-12-29T10:34:21.252Z,25.16
2023-12-29T10:39:30.389Z,23.80
2023-12-29T10:44:33.705Z,24.08
2023-12-29T10:49:37.184Z,24.83
2023-12-29T10:54:40.131Z,24.26
2023-12-29T10:59:43.776Z,23.94
2023-12-29T11:04:46.642Z,23.75
2023-12-29T11:09:50.324Z,21.33
2023-12-29T11:14:58.120Z,21.71
2023-12-29T11:20:06.871Z,21.82
2023-12-29T11:25:11.101Z,22.98
2023-12-29T11:30:16.797Z,23.15
2023-12-29T11:36:12.091Z,24.14
2023-12-29T11:41:35.219Z,22.76
2023-12-29T11:46:40.587Z,24.53
2023-12-29T11:51:45.325Z,23.75
2023-12-29T11:56:49.365Z,22.94
2023-12-29T12:01:53.539Z,23.83
2023-12-29T12:06:56.433Z,23.57
2023-12-29T12:11:59.613Z,23.83
2023-12-29T12:17:03.104Z,24.25
2023-12-29T12:22:09.705Z,23.63
2023-12-29T12:27:13.243Z,23.56
2023-12-29T12:32:18.062Z,23.93
2023-12-29T12:37:22.757Z,23.87
2023-12-29T12:42:26.108Z,24.73
2023-12-29T12:47:36.361Z,23.92
2023-12-29T12:52:40.044Z,25.14
2023-12-29T12:57:43.168Z,26.38
2023-12-29T13:02:48.032Z,25.55
2023-12-29T13:07:51.028Z,25.66
2023-12-29T13:12:55.911Z,25.50
2023-12-29T13:17:58.962Z,25.10
2023-12-29T13:23:02.720Z,25.03
2023-12-29T13:28:07.093Z,26.55
2023-12-29T13:33:13.783Z,24.82
2023-12-29T13:38:26.829Z,25.50
2023-12-29T13:43:33.968Z,24.91
2023-12-29T13:48:37.276Z,24.35
2023-12-29T13:53:40.704Z,24.40
2023-12-29T13:58:43.606Z,23.98
2023-12-29T14:04:06.306Z,25.16
2023-12-29T14:09:17.942Z,25.38
2023-12-29T14:14:28.533Z,25.33
2023-12-29T14:19:38.297Z,25.53
2023-12-29T14:24:41.832Z,25.97
2023-12-29T14:29:45.064Z,26.44
2023-12-29T14:34:54.561Z,25.18
2023-12-29T14:39:57.461Z,26.14
2023-12-29T14:45:00.582Z,25.45
2023-12-29T14:50:03.863Z,24.70
2023-12-29T14:55:08.006Z,26.33
2023-12-29T15:00:12.017Z,25.71
2023-12-29T15:05:14.973Z,25.35
2023-12-29T15:10:17.878Z,24.95
2023-12-29T15:15:22.032Z,24.86
2023-12-29T15:20:24.826Z,24.87
2023-12-29T15:25:28.798Z,24.57
2023-12-29T15:30:31.718Z,24.55
2023-12-29T15:35:34.765Z,25.74
2023-12-29T15:40:38.032Z,25.04
2023-12-29T15:45:42.269Z,24.46
2023-12-29T15:50:46.493Z,25.16
2023-12-29T15:55:49.737Z,24.84
2023-12-29T16:00:52.645Z,25.68
2023-12-29T16:05:56.697Z,26.00
2023-12-29T16:10:59.568Z,25.60
2023-12-29T16:16:05.231Z,25.15
2023-12-29T16:21:08.230Z,25.30
2023-12-29T16:26:12.112Z,25.11
2023-12-29T16:31:15.196Z,25.28
2023-12-29T16:36:19.380Z,25.23
2023-12-29T16:41:23.009Z,27.04
2023-12-29T16:46:26.363Z,24.97
2023-12-29T16:51:29.409Z,25.87
2023-12-29T16:56:32.888Z,25.41
2023-12-29T17:01:35.906Z,26.06
2023-12-29T17:06:39.661Z,26.40
2023-12-29T17:11:46.872Z,25.83
2023-12-29T17:16:58.821Z,26.49
2023-12-29T17:22:03.065Z,25.07
2023-12-29T17:27:08.762Z,25.05
2023-12-29T17:32:11.614Z,24.91
2023-12-29T17:37:14.636Z,26.43
2023-12-29T17:42:17.631Z,24.94
2023-12-29T17:47:22.753Z,24.99
2023-12-29T17:52:25.825Z,25.75
2023-12-29T17:57:29.186Z,24.29
2023-12-29T18:02:33.540Z,24.89
2023-12-29T18:07:36.742Z,25.29
2023-12-29T18:12:40.290Z,27.15
2023-12-29T18:17:43.850Z,27.41
2023-12-29T18:22:46.965Z,26.62
2023-12-29T18:27:50.016Z,25.83
2023-12-29T18:32:53.204Z,24.66
2023-12-29T18:37:56.050Z,26.70
2023-12-29T18:43:00.310Z,26.77
2023-12-29T18:48:03.510Z,25.56
2023-12-29T18:53:09.199Z,24.49
2023-12-29T18:58:12.975Z,24.05
2023-12-29T19:03:17.790Z,24.53
2023-12-29T19:08:20.526Z,25.23
2023-12-29T19:13:23.855Z,24.44
2023-12-29T19:18:26.692Z,25.76
2023-12-29T19:23:29.942Z,27.26
2023-12-29T19:28:32.843Z,25.51
2023-12-29T19:33:36.013Z,24.12
2023-12-29T19:38:44.013Z,24.89
2023-12-29T19:43:47.883Z,26.63
2023-12-29T19:48:51.921Z,25.92
2023-12-29T19:53:56.769Z,26.26
2023-12-29T19:58:59.944Z,25.58
2023-12-29T20:04:04.043Z,25.32
2023-12-29T20:09:08.744Z,25.63
2023-12-29T20:14:13.815Z,25.43
2023-12-29T20:19:17.032Z,25.68
2023-12-29T20:24:20.554Z,26.32
2023-12-29T20:29:24.598Z,25.65
2023-12-29T20:34:27.804Z,25.23
2023-12-29T20:39:30.775Z,24.97
2023-12-29T20:44:34.328Z,24.41
2023-12-29T20:49:37.358Z,24.08
2023-12-29T20:54:41.051Z,24.25
2023-12-29T20:59:44.053Z,25.29
2023-12-29T21:04:47.570Z,25.91
2023-12-29T21:09:51.130Z,25.20
2023-12-29T21:14:57.107Z,25.53
2023-12-29T21:20:00.129Z,25.48
2023-12-29T21:25:04.797Z,25.29
2023-12-29T21:30:08.023Z,24.97
2023-12-29T21:35:12.884Z,24.49
2023-12-29T21:40:16.021Z,24.16
2023-12-29T21:45:20.942Z,23.82
2023-12-29T21:50:25.160Z,24.16
2023-12-29T21:55:28.647Z,25.14
2023-12-29T22:00:32.021Z,24.46
2023-12-29T22:05:35.788Z,23.82
2023-12-29T22:10:38.877Z,23.12
2023-12-29T22:15:42.912Z,24.09
2023-12-29T22:20:45.804Z,24.26
2023-12-29T22:25:49.252Z,24.23
2023-12-29T22:30:52.171Z,24.10
2023-12-29T22:35:55.405Z,23.61
2023-12-29T22:40:59.128Z,23.44
2023-12-29T22:46:03.980Z,23.98
2023-12-29T22:51:08.078Z,24.30
2023-12-29T22:56:11.200Z,24.32
2023-12-29T23:01:14.756Z,25.03
2023-12-29T23:06:18.697Z,24.36
2023-12-29T23:11:21.558Z,24.85
2023-12-29T23:16:24.643Z,25.60
2023-12-29T23:21:27.750Z,25.58
2023-12-29T23:26:30.897Z,25.67
2023-12-29T23:31:34.465Z,24.33
2023-12-29T23:36:38.577Z,24.94
2023-12-29T23:41:41.781Z,25.25
2023-12-29T23:46:45.172Z,24.47
2023-12-29T23:51:49.122Z,23.28
2023-12-29T23:56:53.392Z,24.29
